sensor_id;sensor_type;location;lat;lon;timestamp;temperature;humidity
22185;DHT22;11258;52.516;13.318;2022-12-13T00:01:16;-0.20;99.90
22185;DHT22;11258;52.516;13.318;2022-12-13T00:03:42;-0.20;99.90
22185;DHT22;11258;52.516;13.318;2022-12-13T00:06:09;-0.30;99.90
22185;DHT22;11258;52.516;13.318;2022-12-13T00:08:35;-0.20;99.90
22185;DHT22;11258;52.516;13.318;2022-12-13T00:11:03;-0.20;99.90
22185;DHT22;11258;52.516;13.318;2022-12-13T00:13:29;-0.20;99.90
22185;DHT22;11258;52.516;13.318;2022-12-13T00:15:59;-0.10;99.90
22185;DHT22;11258;52.516;13.318;2022-12-13T00:18:26;-0.30;99.90
22185;DHT22;11258;52.516;13.318;2022-12-13T00:20:51;-0.20;99.90
22185;DHT22;11258;52.516;13.318;2022-12-13T00:23:17;-0.20;99.90
22185;DHT22;11258;52.516;13.318;2022-12-13T00:25:43;-0.30;99.90
22185;DHT22;11258;52.516;13.318;2022-12-13T00:28:09;-0.20;99.90
22185;DHT22;11258;52.516;13.318;2022-12-13T00:30:35;-0.30;99.90
22185;DHT22;11258;52.516;13.318;2022-12-13T00:33:02;-0.30;99.90
22185;DHT22;11258;52.516;13.318;2022-12-13T00:35:27;-0.30;99.90
22185;DHT22;11258;52.516;13.318;2022-12-13T00:37:53;-0.20;99.90
22185;DHT22;11258;52.516;13.318;2022-12-13T00:40:19;-0.30;99.90
22185;DHT22;11258;52.516;13.318;2022-12-13T00:42:45;-0.30;99.90
22185;DHT22;11258;52.516;13.318;2022-12-13T00:45:11;-0.30;99.90
22185;DHT22;11258;52.516;13.318;2022-12-13T00:47:37;-0.30;99.90
22185;DHT22;11258;52.516;13.318;2022-12-13T00:50:03;-0.30;99.90
22185;DHT22;11258;52.516;13.318;2022-12-13T00:52:29;-0.20;99.90
22185;DHT22;11258;52.516;13.318;2022-12-13T00:54:55;-0.20;99.90
22185;DHT22;11258;52.516;13.318;2022-12-13T00:57:20;-0.20;99.90
22185;DHT22;11258;52.516;13.318;2022-12-13T00:59:46;-0.20;99.90
22185;DHT22;11258;52.516;13.318;2022-12-13T01:02:12;-0.30;99.90
22185;DHT22;11258;52.516;13.318;2022-12-13T01:04:37;-0.30;99.90
22185;DHT22;11258;52.516;13.318;2022-12-13T01:07:03;-0.30;99.90
22185;DHT22;11258;52.516;13.318;2022-12-13T01:09:29;-0.20;99.90
22185;DHT22;11258;52.516;13.318;2022-12-13T01:12:02;-0.20;99.90
22185;DHT22;11258;52.516;13.318;2022-12-13T01:14:29;-0.20;99.90
22185;DHT22;11258;52.516;13.318;2022-12-13T01:16:55;-0.30;99.90
22185;DHT22;11258;52.516;13.318;2022-12-13T01:19:25;-0.30;99.90
22185;DHT22;11258;52.516;13.318;2022-12-13T01:21:55;-0.30;99.90
22185;DHT22;11258;52.516;13.318;2022-12-13T01:24:21;-0.30;99.90
22185;DHT22;11258;52.516;13.318;2022-12-13T01:26:49;-0.20;99.90
22185;DHT22;11258;52.516;13.318;2022-12-13T01:29:16;-0.30;99.90
22185;DHT22;11258;52.516;13.318;2022-12-13T01:31:41;-0.20;99.90
22185;DHT22;11258;52.516;13.318;2022-12-13T01:34:12;-0.20;99.90
22185;DHT22;11258;52.516;13.318;2022-12-13T01:36:39;-0.20;99.90
22185;DHT22;11258;52.516;13.318;2022-12-13T01:39:06;-0.20;99.90
22185;DHT22;11258;52.516;13.318;2022-12-13T01:41:32;-0.10;99.90
22185;DHT22;11258;52.516;13.318;2022-12-13T01:44:00;-0.30;99.90
22185;DHT22;11258;52.516;13.318;2022-12-13T01:46:28;-0.30;99.90
22185;DHT22;11258;52.516;13.318;2022-12-13T01:51:39;-0.20;99.90
22185;DHT22;11258;52.516;13.318;2022-12-13T01:54:10;-0.30;99.90
22185;DHT22;11258;52.516;13.318;2022-12-13T01:56:42;-0.30;99.90
22185;DHT22;11258;52.516;13.318;2022-12-13T01:59:10;-0.30;99.90
22185;DHT22;11258;52.516;13.318;2022-12-13T02:01:37;-0.30;99.90
22185;DHT22;11258;52.516;13.318;2022-12-13T02:04:03;-0.40;99.90
22185;DHT22;11258;52.516;13.318;2022-12-13T02:09:00;-0.30;99.90
22185;DHT22;11258;52.516;13.318;2022-12-13T02:11:27;-0.20;99.90
22185;DHT22;11258;52.516;13.318;2022-12-13T02:13:53;-0.30;99.90
22185;DHT22;11258;52.516;13.318;2022-12-13T02:19:22;-0.30;99.90
22185;DHT22;11258;52.516;13.318;2022-12-13T02:30:30;-0.30;99.90
22185;DHT22;11258;52.516;13.318;2022-12-13T02:40:37;-0.40;99.90
22185;DHT22;11258;52.516;13.318;2022-12-13T02:45:48;-0.30;99.90
22185;DHT22;11258;52.516;13.318;2022-12-13T02:48:18;-0.40;99.90
22185;DHT22;11258;52.516;13.318;2022-12-13T02:50:45;-0.30;99.90
22185;DHT22;11258;52.516;13.318;2022-12-13T02:53:12;-0.30;99.90
22185;DHT22;11258;52.516;13.318;2022-12-13T02:55:38;-0.40;99.90
22185;DHT22;11258;52.516;13.318;2022-12-13T02:58:05;-0.30;99.90
22185;DHT22;11258;52.516;13.318;2022-12-13T03:00:56;-0.40;99.90
22185;DHT22;11258;52.516;13.318;2022-12-13T03:12:35;-0.40;99.90
22185;DHT22;11258;52.516;13.318;2022-12-13T03:15:23;-0.40;99.90
22185;DHT22;11258;52.516;13.318;2022-12-13T03:18:03;-0.40;99.90
22185;DHT22;11258;52.516;13.318;2022-12-13T03:20:30;-0.40;99.90
22185;DHT22;11258;52.516;13.318;2022-12-13T03:22:57;-0.30;99.90
22185;DHT22;11258;52.516;13.318;2022-12-13T03:25:29;-0.30;99.90
22185;DHT22;11258;52.516;13.318;2022-12-13T03:27:55;-0.30;99.90
22185;DHT22;11258;52.516;13.318;2022-12-13T03:30:20;-0.20;99.90
22185;DHT22;11258;52.516;13.318;2022-12-13T03:32:46;-0.30;99.90
22185;DHT22;11258;52.516;13.318;2022-12-13T03:35:11;-0.20;99.90
22185;DHT22;11258;52.516;13.318;2022-12-13T03:37:37;-0.30;99.90
22185;DHT22;11258;52.516;13.318;2022-12-13T03:40:03;-0.30;99.90
22185;DHT22;11258;52.516;13.318;2022-12-13T03:42:29;-0.30;99.90
22185;DHT22;11258;52.516;13.318;2022-12-13T03:44:55;-0.40;99.90
22185;DHT22;11258;52.516;13.318;2022-12-13T03:47:20;-0.40;99.90
22185;DHT22;11258;52.516;13.318;2022-12-13T03:49:46;-0.30;99.90
22185;DHT22;11258;52.516;13.318;2022-12-13T03:52:11;-0.50;99.90
22185;DHT22;11258;52.516;13.318;2022-12-13T03:54:37;-0.40;99.90
22185;DHT22;11258;52.516;13.318;2022-12-13T03:57:02;-0.30;99.90
22185;DHT22;11258;52.516;13.318;2022-12-13T03:59:28;-0.30;99.90
22185;DHT22;11258;52.516;13.318;2022-12-13T04:01:54;-0.30;99.90
22185;DHT22;11258;52.516;13.318;2022-12-13T04:04:19;-0.30;99.90
22185;DHT22;11258;52.516;13.318;2022-12-13T04:06:45;-0.40;99.90
22185;DHT22;11258;52.516;13.318;2022-12-13T04:09:10;-0.30;99.90
22185;DHT22;11258;52.516;13.318;2022-12-13T04:11:36;-0.30;99.90
22185;DHT22;11258;52.516;13.318;2022-12-13T04:14:20;-0.30;99.90
22185;DHT22;11258;52.516;13.318;2022-12-13T04:16:46;-0.30;99.90
22185;DHT22;11258;52.516;13.318;2022-12-13T04:19:12;-0.40;99.90
22185;DHT22;11258;52.516;13.318;2022-12-13T04:21:37;-0.30;99.90
22185;DHT22;11258;52.516;13.318;2022-12-13T04:24:03;-0.40;99.90
22185;DHT22;11258;52.516;13.318;2022-12-13T04:26:29;-0.40;99.90
22185;DHT22;11258;52.516;13.318;2022-12-13T04:28:55;-0.30;99.90
22185;DHT22;11258;52.516;13.318;2022-12-13T04:31:21;-0.40;99.90
22185;DHT22;11258;52.516;13.318;2022-12-13T04:33:47;-0.30;99.90
22185;DHT22;11258;52.516;13.318;2022-12-13T04:36:12;-0.40;99.90
22185;DHT22;11258;52.516;13.318;2022-12-13T04:38:44;-0.40;99.90
22185;DHT22;11258;52.516;13.318;2022-12-13T04:41:15;-0.30;99.90
22185;DHT22;11258;52.516;13.318;2022-12-13T04:43:42;-0.30;99.90
22185;DHT22;11258;52.516;13.318;2022-12-13T04:46:07;-0.30;99.90
22185;DHT22;11258;52.516;13.318;2022-12-13T04:48:33;-0.30;99.90
22185;DHT22;11258;52.516;13.318;2022-12-13T04:50:59;-0.30;99.90
22185;DHT22;11258;52.516;13.318;2022-12-13T04:53:25;-0.30;99.90
22185;DHT22;11258;52.516;13.318;2022-12-13T04:55:51;-0.30;99.90
22185;DHT22;11258;52.516;13.318;2022-12-13T04:58:17;-0.30;99.90
22185;DHT22;11258;52.516;13.318;2022-12-13T05:00:44;-0.30;99.90
22185;DHT22;11258;52.516;13.318;2022-12-13T05:03:09;-0.30;99.90
22185;DHT22;11258;52.516;13.318;2022-12-13T05:05:38;-0.30;99.90
22185;DHT22;11258;52.516;13.318;2022-12-13T05:08:05;-0.20;99.90
22185;DHT22;11258;52.516;13.318;2022-12-13T05:10:31;-0.30;99.90
22185;DHT22;11258;52.516;13.318;2022-12-13T05:12:58;-0.30;99.90
22185;DHT22;11258;52.516;13.318;2022-12-13T05:15:23;-0.40;99.90
22185;DHT22;11258;52.516;13.318;2022-12-13T05:17:49;-0.50;99.90
22185;DHT22;11258;52.516;13.318;2022-12-13T05:20:15;-0.50;99.90
22185;DHT22;11258;52.516;13.318;2022-12-13T05:22:40;-0.50;99.90
22185;DHT22;11258;52.516;13.318;2022-12-13T05:25:06;-0.40;99.90
22185;DHT22;11258;52.516;13.318;2022-12-13T05:27:32;-0.40;99.90
22185;DHT22;11258;52.516;13.318;2022-12-13T05:29:57;-0.40;99.90
22185;DHT22;11258;52.516;13.318;2022-12-13T05:32:23;-0.40;99.90
22185;DHT22;11258;52.516;13.318;2022-12-13T05:34:49;-0.40;99.90
22185;DHT22;11258;52.516;13.318;2022-12-13T05:37:14;-0.40;99.90
22185;DHT22;11258;52.516;13.318;2022-12-13T05:39:40;-0.30;99.90
22185;DHT22;11258;52.516;13.318;2022-12-13T05:42:05;-0.30;99.90
22185;DHT22;11258;52.516;13.318;2022-12-13T05:44:31;-0.40;99.90
22185;DHT22;11258;52.516;13.318;2022-12-13T05:46:58;-0.40;99.90
22185;DHT22;11258;52.516;13.318;2022-12-13T05:49:24;-0.40;99.90
22185;DHT22;11258;52.516;13.318;2022-12-13T05:51:49;-0.40;99.90
22185;DHT22;11258;52.516;13.318;2022-12-13T05:54:15;-0.40;99.90
22185;DHT22;11258;52.516;13.318;2022-12-13T05:56:41;-0.50;99.90
22185;DHT22;11258;52.516;13.318;2022-12-13T05:59:06;-0.50;99.90
22185;DHT22;11258;52.516;13.318;2022-12-13T06:01:32;-0.50;99.90
22185;DHT22;11258;52.516;13.318;2022-12-13T06:03:58;-0.50;99.90
22185;DHT22;11258;52.516;13.318;2022-12-13T06:06:24;-0.50;99.90
22185;DHT22;11258;52.516;13.318;2022-12-13T06:08:49;-0.40;99.90
22185;DHT22;11258;52.516;13.318;2022-12-13T06:11:15;-0.50;99.90
22185;DHT22;11258;52.516;13.318;2022-12-13T06:13:41;-0.40;99.90
22185;DHT22;11258;52.516;13.318;2022-12-13T06:16:07;-0.40;99.90
22185;DHT22;11258;52.516;13.318;2022-12-13T06:18:34;-0.40;99.90
22185;DHT22;11258;52.516;13.318;2022-12-13T06:21:02;-0.40;99.90
22185;DHT22;11258;52.516;13.318;2022-12-13T06:23:30;-0.50;99.90
22185;DHT22;11258;52.516;13.318;2022-12-13T06:25:56;-0.40;99.90
22185;DHT22;11258;52.516;13.318;2022-12-13T06:28:22;-0.50;99.90
22185;DHT22;11258;52.516;13.318;2022-12-13T06:30:47;-0.50;99.90
22185;DHT22;11258;52.516;13.318;2022-12-13T06:33:20;-0.60;99.90
22185;DHT22;11258;52.516;13.318;2022-12-13T06:35:46;-0.60;99.90
22185;DHT22;11258;52.516;13.318;2022-12-13T06:38:12;-0.60;99.90
22185;DHT22;11258;52.516;13.318;2022-12-13T06:40:38;-0.60;99.90
22185;DHT22;11258;52.516;13.318;2022-12-13T06:43:04;-0.70;99.90
22185;DHT22;11258;52.516;13.318;2022-12-13T06:45:30;-0.70;99.90
22185;DHT22;11258;52.516;13.318;2022-12-13T06:47:56;-0.60;99.90
22185;DHT22;11258;52.516;13.318;2022-12-13T06:50:22;-0.60;99.90
22185;DHT22;11258;52.516;13.318;2022-12-13T06:52:47;-0.60;99.90
22185;DHT22;11258;52.516;13.318;2022-12-13T06:55:13;-0.60;99.90
22185;DHT22;11258;52.516;13.318;2022-12-13T06:57:39;-0.50;99.90
22185;DHT22;11258;52.516;13.318;2022-12-13T07:00:05;-0.70;99.90
22185;DHT22;11258;52.516;13.318;2022-12-13T07:02:31;-0.70;99.90
22185;DHT22;11258;52.516;13.318;2022-12-13T07:04:57;-0.60;99.90
22185;DHT22;11258;52.516;13.318;2022-12-13T07:07:23;-0.60;99.90
22185;DHT22;11258;52.516;13.318;2022-12-13T07:09:50;-0.60;99.90
22185;DHT22;11258;52.516;13.318;2022-12-13T07:12:15;-0.70;99.90
22185;DHT22;11258;52.516;13.318;2022-12-13T07:14:41;-0.60;99.90
22185;DHT22;11258;52.516;13.318;2022-12-13T07:17:07;-0.60;99.90
22185;DHT22;11258;52.516;13.318;2022-12-13T07:19:33;-0.70;99.90
22185;DHT22;11258;52.516;13.318;2022-12-13T07:21:58;-0.70;99.90
22185;DHT22;11258;52.516;13.318;2022-12-13T07:24:24;-0.60;99.90
22185;DHT22;11258;52.516;13.318;2022-12-13T07:26:50;-0.70;99.90
22185;DHT22;11258;52.516;13.318;2022-12-13T07:29:15;-0.70;99.90
22185;DHT22;11258;52.516;13.318;2022-12-13T07:31:41;-0.60;99.90
22185;DHT22;11258;52.516;13.318;2022-12-13T07:34:06;-0.60;99.90
22185;DHT22;11258;52.516;13.318;2022-12-13T07:36:32;-0.60;99.90
22185;DHT22;11258;52.516;13.318;2022-12-13T07:38:58;-0.70;99.90
22185;DHT22;11258;52.516;13.318;2022-12-13T07:41:24;-0.70;99.90
22185;DHT22;11258;52.516;13.318;2022-12-13T07:43:52;-0.70;99.90
22185;DHT22;11258;52.516;13.318;2022-12-13T07:46:18;-0.60;99.90
22185;DHT22;11258;52.516;13.318;2022-12-13T07:48:43;-0.70;99.90
22185;DHT22;11258;52.516;13.318;2022-12-13T07:51:10;-0.70;99.90
22185;DHT22;11258;52.516;13.318;2022-12-13T07:53:39;-0.80;99.90
22185;DHT22;11258;52.516;13.318;2022-12-13T07:56:07;-0.80;99.90
22185;DHT22;11258;52.516;13.318;2022-12-13T07:58:33;-0.70;99.90
22185;DHT22;11258;52.516;13.318;2022-12-13T08:01:01;-0.70;99.90
22185;DHT22;11258;52.516;13.318;2022-12-13T08:03:27;-0.70;99.90
22185;DHT22;11258;52.516;13.318;2022-12-13T08:06:03;-0.70;99.90
22185;DHT22;11258;52.516;13.318;2022-12-13T08:08:30;-0.70;99.90
22185;DHT22;11258;52.516;13.318;2022-12-13T08:11:00;-0.70;99.90
22185;DHT22;11258;52.516;13.318;2022-12-13T08:13:26;-0.50;99.90
22185;DHT22;11258;52.516;13.318;2022-12-13T08:15:57;-0.60;99.90
22185;DHT22;11258;52.516;13.318;2022-12-13T08:18:23;-0.50;99.90
22185;DHT22;11258;52.516;13.318;2022-12-13T08:20:48;-0.50;99.90
22185;DHT22;11258;52.516;13.318;2022-12-13T08:23:14;-0.50;99.90
22185;DHT22;11258;52.516;13.318;2022-12-13T08:25:40;-0.40;99.90
22185;DHT22;11258;52.516;13.318;2022-12-13T08:28:05;-0.50;99.90
22185;DHT22;11258;52.516;13.318;2022-12-13T08:30:31;-0.50;99.90
22185;DHT22;11258;52.516;13.318;2022-12-13T08:32:57;-0.50;99.90
22185;DHT22;11258;52.516;13.318;2022-12-13T08:35:26;-0.60;99.90
22185;DHT22;11258;52.516;13.318;2022-12-13T08:37:52;-0.60;99.90
22185;DHT22;11258;52.516;13.318;2022-12-13T08:40:17;-0.60;99.90
22185;DHT22;11258;52.516;13.318;2022-12-13T08:42:43;-0.70;99.90
22185;DHT22;11258;52.516;13.318;2022-12-13T08:45:09;-0.60;99.90
22185;DHT22;11258;52.516;13.318;2022-12-13T08:47:35;-0.60;99.90
22185;DHT22;11258;52.516;13.318;2022-12-13T08:50:01;-0.40;99.90
22185;DHT22;11258;52.516;13.318;2022-12-13T08:52:26;-0.40;99.90
22185;DHT22;11258;52.516;13.318;2022-12-13T08:54:52;-0.50;99.90
22185;DHT22;11258;52.516;13.318;2022-12-13T08:57:18;-0.40;99.90
22185;DHT22;11258;52.516;13.318;2022-12-13T08:59:44;-0.40;99.90
22185;DHT22;11258;52.516;13.318;2022-12-13T09:02:13;-0.30;99.90
22185;DHT22;11258;52.516;13.318;2022-12-13T09:04:39;-0.20;99.90
22185;DHT22;11258;52.516;13.318;2022-12-13T09:07:05;-0.20;99.90
22185;DHT22;11258;52.516;13.318;2022-12-13T09:09:31;0.00;99.90
22185;DHT22;11258;52.516;13.318;2022-12-13T09:11:56;-0.20;99.90
22185;DHT22;11258;52.516;13.318;2022-12-13T09:14:22;-0.20;99.90
22185;DHT22;11258;52.516;13.318;2022-12-13T09:16:48;-0.30;99.90
22185;DHT22;11258;52.516;13.318;2022-12-13T09:19:13;-0.30;99.90
22185;DHT22;11258;52.516;13.318;2022-12-13T09:21:39;-0.30;99.90
22185;DHT22;11258;52.516;13.318;2022-12-13T09:24:05;-0.40;99.90
22185;DHT22;11258;52.516;13.318;2022-12-13T09:26:30;-0.30;99.90
22185;DHT22;11258;52.516;13.318;2022-12-13T09:28:56;-0.40;99.90
22185;DHT22;11258;52.516;13.318;2022-12-13T09:31:22;-0.30;99.90
22185;DHT22;11258;52.516;13.318;2022-12-13T09:33:47;-0.40;99.90
22185;DHT22;11258;52.516;13.318;2022-12-13T09:36:18;-0.50;99.90
22185;DHT22;11258;52.516;13.318;2022-12-13T09:38:45;-0.40;99.90
22185;DHT22;11258;52.516;13.318;2022-12-13T09:43:48;-0.40;99.90
22185;DHT22;11258;52.516;13.318;2022-12-13T09:46:32;-0.40;99.90
22185;DHT22;11258;52.516;13.318;2022-12-13T09:49:01;-0.40;99.90
22185;DHT22;11258;52.516;13.318;2022-12-13T09:51:28;-0.40;99.90
22185;DHT22;11258;52.516;13.318;2022-12-13T09:53:56;-0.50;99.90
22185;DHT22;11258;52.516;13.318;2022-12-13T09:56:22;-0.40;99.90
22185;DHT22;11258;52.516;13.318;2022-12-13T09:58:52;-0.30;99.90
22185;DHT22;11258;52.516;13.318;2022-12-13T10:01:18;-0.40;99.90
22185;DHT22;11258;52.516;13.318;2022-12-13T10:03:48;-0.30;99.90
22185;DHT22;11258;52.516;13.318;2022-12-13T10:06:22;-0.30;99.90
22185;DHT22;11258;52.516;13.318;2022-12-13T10:08:56;-0.30;99.90
22185;DHT22;11258;52.516;13.318;2022-12-13T10:11:22;-0.40;99.90
22185;DHT22;11258;52.516;13.318;2022-12-13T10:13:55;-0.30;99.90
22185;DHT22;11258;52.516;13.318;2022-12-13T10:16:46;-0.30;99.90
22185;DHT22;11258;52.516;13.318;2022-12-13T10:19:28;-0.30;99.90
22185;DHT22;11258;52.516;13.318;2022-12-13T10:21:59;-0.20;99.90
22185;DHT22;11258;52.516;13.318;2022-12-13T10:24:27;-0.30;99.90
22185;DHT22;11258;52.516;13.318;2022-12-13T10:27:14;-0.30;99.90
22185;DHT22;11258;52.516;13.318;2022-12-13T10:30:20;-0.40;99.90
22185;DHT22;11258;52.516;13.318;2022-12-13T10:33:01;-0.40;99.90
22185;DHT22;11258;52.516;13.318;2022-12-13T10:35:36;-0.40;99.90
22185;DHT22;11258;52.516;13.318;2022-12-13T10:38:26;-0.30;99.90
22185;DHT22;11258;52.516;13.318;2022-12-13T10:40:53;-0.50;99.90
22185;DHT22;11258;52.516;13.318;2022-12-13T10:43:20;-0.50;99.90
22185;DHT22;11258;52.516;13.318;2022-12-13T10:45:58;-0.40;99.90
22185;DHT22;11258;52.516;13.318;2022-12-13T10:48:37;-0.10;99.90
22185;DHT22;11258;52.516;13.318;2022-12-13T10:51:10;-0.30;99.90
22185;DHT22;11258;52.516;13.318;2022-12-13T10:53:56;-0.40;99.90
22185;DHT22;11258;52.516;13.318;2022-12-13T10:56:34;-0.30;99.90
22185;DHT22;11258;52.516;13.318;2022-12-13T10:59:10;-0.30;99.90
22185;DHT22;11258;52.516;13.318;2022-12-13T11:01:39;-0.10;99.90
22185;DHT22;11258;52.516;13.318;2022-12-13T11:04:25;-0.10;99.90
22185;DHT22;11258;52.516;13.318;2022-12-13T11:06:52;-0.10;99.90
22185;DHT22;11258;52.516;13.318;2022-12-13T11:09:27;-0.10;99.90
22185;DHT22;11258;52.516;13.318;2022-12-13T11:11:54;0.00;99.90
22185;DHT22;11258;52.516;13.318;2022-12-13T11:14:23;0.00;99.90
22185;DHT22;11258;52.516;13.318;2022-12-13T11:16:53;0.00;99.90
22185;DHT22;11258;52.516;13.318;2022-12-13T11:19:45;0.00;99.90
22185;DHT22;11258;52.516;13.318;2022-12-13T11:22:22;0.00;99.90
22185;DHT22;11258;52.516;13.318;2022-12-13T11:24:51;0.20;99.90
22185;DHT22;11258;52.516;13.318;2022-12-13T11:30:10;0.20;99.90
22185;DHT22;11258;52.516;13.318;2022-12-13T11:35:19;0.10;99.90
22185;DHT22;11258;52.516;13.318;2022-12-13T11:40:31;0.10;99.90
22185;DHT22;11258;52.516;13.318;2022-12-13T11:45:42;0.20;99.90
22185;DHT22;11258;52.516;13.318;2022-12-13T11:48:40;0.00;99.90
22185;DHT22;11258;52.516;13.318;2022-12-13T11:51:08;0.10;99.90
22185;DHT22;11258;52.516;13.318;2022-12-13T11:53:58;0.10;99.90
22185;DHT22;11258;52.516;13.318;2022-12-13T11:56:29;0.10;99.90
22185;DHT22;11258;52.516;13.318;2022-12-13T12:01:50;0.10;99.90
22185;DHT22;11258;52.516;13.318;2022-12-13T12:07:21;0.10;99.90
22185;DHT22;11258;52.516;13.318;2022-12-13T12:09:56;0.10;99.90
22185;DHT22;11258;52.516;13.318;2022-12-13T12:15:06;0.20;99.90
22185;DHT22;11258;52.516;13.318;2022-12-13T12:17:34;0.20;99.90
22185;DHT22;11258;52.516;13.318;2022-12-13T12:20:00;0.30;99.90
22185;DHT22;11258;52.516;13.318;2022-12-13T12:22:39;0.20;99.90
22185;DHT22;11258;52.516;13.318;2022-12-13T12:39:41;0.50;99.90
22185;DHT22;11258;52.516;13.318;2022-12-13T12:42:33;0.50;99.90
22185;DHT22;11258;52.516;13.318;2022-12-13T12:51:18;0.30;99.90
22185;DHT22;11258;52.516;13.318;2022-12-13T13:02:19;0.30;99.90
22185;DHT22;11258;52.516;13.318;2022-12-13T13:05:02;0.20;99.90
22185;DHT22;11258;52.516;13.318;2022-12-13T13:07:35;0.20;99.90
22185;DHT22;11258;52.516;13.318;2022-12-13T13:10:05;0.20;99.90
22185;DHT22;11258;52.516;13.318;2022-12-13T13:12:37;0.30;99.90
22185;DHT22;11258;52.516;13.318;2022-12-13T13:17:58;0.30;99.90
22185;DHT22;11258;52.516;13.318;2022-12-13T13:20:25;0.30;99.90
22185;DHT22;11258;52.516;13.318;2022-12-13T13:22:55;0.30;99.90
22185;DHT22;11258;52.516;13.318;2022-12-13T13:25:23;0.30;99.90
22185;DHT22;11258;52.516;13.318;2022-12-13T13:27:51;0.20;99.90
22185;DHT22;11258;52.516;13.318;2022-12-13T13:30:25;0.20;99.90
22185;DHT22;11258;52.516;13.318;2022-12-13T13:32:53;0.20;99.90
22185;DHT22;11258;52.516;13.318;2022-12-13T13:38:04;0.30;99.90
22185;DHT22;11258;52.516;13.318;2022-12-13T13:40:46;0.20;99.90
22185;DHT22;11258;52.516;13.318;2022-12-13T13:43:14;0.30;99.90
22185;DHT22;11258;52.516;13.318;2022-12-13T14:07:57;0.40;99.90
22185;DHT22;11258;52.516;13.318;2022-12-13T14:30:54;0.30;99.90
22185;DHT22;11258;52.516;13.318;2022-12-13T14:33:21;0.30;99.90
22185;DHT22;11258;52.516;13.318;2022-12-13T14:35:58;0.30;99.90
22185;DHT22;11258;52.516;13.318;2022-12-13T14:38:29;0.30;99.90
22185;DHT22;11258;52.516;13.318;2022-12-13T14:40:58;0.30;99.90
22185;DHT22;11258;52.516;13.318;2022-12-13T14:43:29;0.30;99.90
22185;DHT22;11258;52.516;13.318;2022-12-13T14:46:00;0.20;99.90
22185;DHT22;11258;52.516;13.318;2022-12-13T14:48:29;0.20;99.90
22185;DHT22;11258;52.516;13.318;2022-12-13T14:50:58;0.10;99.90
22185;DHT22;11258;52.516;13.318;2022-12-13T14:53:31;0.20;99.90
22185;DHT22;11258;52.516;13.318;2022-12-13T14:56:13;0.20;99.90
22185;DHT22;11258;52.516;13.318;2022-12-13T14:58:54;0.30;99.90
22185;DHT22;11258;52.516;13.318;2022-12-13T15:01:27;0.20;99.90
22185;DHT22;11258;52.516;13.318;2022-12-13T15:03:53;0.20;99.90
22185;DHT22;11258;52.516;13.318;2022-12-13T15:06:20;0.10;99.90
22185;DHT22;11258;52.516;13.318;2022-12-13T15:08:46;0.10;99.90
22185;DHT22;11258;52.516;13.318;2022-12-13T15:11:12;0.00;99.90
22185;DHT22;11258;52.516;13.318;2022-12-13T15:13:43;0.00;99.90
22185;DHT22;11258;52.516;13.318;2022-12-13T15:16:27;0.10;99.90
22185;DHT22;11258;52.516;13.318;2022-12-13T15:21:32;0.00;99.90
22185;DHT22;11258;52.516;13.318;2022-12-13T15:23:58;0.10;99.90
22185;DHT22;11258;52.516;13.318;2022-12-13T15:26:25;0.10;99.90
22185;DHT22;11258;52.516;13.318;2022-12-13T15:28:54;0.00;99.90
22185;DHT22;11258;52.516;13.318;2022-12-13T15:31:20;0.20;99.90
22185;DHT22;11258;52.516;13.318;2022-12-13T15:33:46;0.10;99.90
22185;DHT22;11258;52.516;13.318;2022-12-13T15:41:32;0.10;99.90
22185;DHT22;11258;52.516;13.318;2022-12-13T15:44:05;0.00;99.90
22185;DHT22;11258;52.516;13.318;2022-12-13T15:46:34;0.00;99.90
22185;DHT22;11258;52.516;13.318;2022-12-13T15:49:03;0.00;99.90
22185;DHT22;11258;52.516;13.318;2022-12-13T15:51:29;0.10;99.90
22185;DHT22;11258;52.516;13.318;2022-12-13T15:56:56;0.10;99.90
22185;DHT22;11258;52.516;13.318;2022-12-13T15:59:28;0.00;99.90
22185;DHT22;11258;52.516;13.318;2022-12-13T16:01:54;0.00;99.90
22185;DHT22;11258;52.516;13.318;2022-12-13T16:04:22;0.00;99.90
22185;DHT22;11258;52.516;13.318;2022-12-13T16:06:49;-0.10;99.90
22185;DHT22;11258;52.516;13.318;2022-12-13T16:09:19;-0.10;99.90
22185;DHT22;11258;52.516;13.318;2022-12-13T16:11:51;0.00;99.90
22185;DHT22;11258;52.516;13.318;2022-12-13T16:16:51;-0.10;99.90
22185;DHT22;11258;52.516;13.318;2022-12-13T16:19:18;-0.20;99.90
22185;DHT22;11258;52.516;13.318;2022-12-13T16:21:44;-0.20;99.90
22185;DHT22;11258;52.516;13.318;2022-12-13T16:24:10;-0.20;99.90
22185;DHT22;11258;52.516;13.318;2022-12-13T16:26:35;-0.20;99.90
22185;DHT22;11258;52.516;13.318;2022-12-13T16:29:04;-0.30;99.90
22185;DHT22;11258;52.516;13.318;2022-12-13T16:31:30;-0.30;99.90
22185;DHT22;11258;52.516;13.318;2022-12-13T16:34:00;-0.20;99.90
22185;DHT22;11258;52.516;13.318;2022-12-13T16:36:26;-0.30;99.90
22185;DHT22;11258;52.516;13.318;2022-12-13T16:38:51;-0.30;99.90
22185;DHT22;11258;52.516;13.318;2022-12-13T16:41:17;-0.30;99.90
22185;DHT22;11258;52.516;13.318;2022-12-13T16:43:55;-0.40;99.90
22185;DHT22;11258;52.516;13.318;2022-12-13T16:46:21;-0.40;99.90
22185;DHT22;11258;52.516;13.318;2022-12-13T16:48:47;-0.50;99.90
22185;DHT22;11258;52.516;13.318;2022-12-13T16:51:12;-0.50;99.90
22185;DHT22;11258;52.516;13.318;2022-12-13T16:53:38;-0.60;99.90
22185;DHT22;11258;52.516;13.318;2022-12-13T16:56:04;-0.60;99.90
22185;DHT22;11258;52.516;13.318;2022-12-13T16:58:30;-0.60;99.90
22185;DHT22;11258;52.516;13.318;2022-12-13T17:00:55;-0.60;99.90
22185;DHT22;11258;52.516;13.318;2022-12-13T17:03:22;-0.70;99.90
22185;DHT22;11258;52.516;13.318;2022-12-13T17:05:47;-0.70;99.90
22185;DHT22;11258;52.516;13.318;2022-12-13T17:08:14;-0.80;99.90
22185;DHT22;11258;52.516;13.318;2022-12-13T17:10:41;-0.70;99.90
22185;DHT22;11258;52.516;13.318;2022-12-13T17:13:08;-0.70;99.90
22185;DHT22;11258;52.516;13.318;2022-12-13T17:15:33;-0.70;99.90
22185;DHT22;11258;52.516;13.318;2022-12-13T17:17:59;-0.70;99.90
22185;DHT22;11258;52.516;13.318;2022-12-13T17:20:25;-0.70;99.90
22185;DHT22;11258;52.516;13.318;2022-12-13T17:22:51;-0.70;99.90
22185;DHT22;11258;52.516;13.318;2022-12-13T17:25:17;-0.90;99.90
22185;DHT22;11258;52.516;13.318;2022-12-13T17:27:42;-0.80;99.90
22185;DHT22;11258;52.516;13.318;2022-12-13T17:30:13;-0.90;99.90
22185;DHT22;11258;52.516;13.318;2022-12-13T17:32:39;-0.80;99.90
22185;DHT22;11258;52.516;13.318;2022-12-13T17:35:05;-0.90;99.90
22185;DHT22;11258;52.516;13.318;2022-12-13T17:37:31;-1.00;99.90
22185;DHT22;11258;52.516;13.318;2022-12-13T17:39:57;-0.90;99.90
22185;DHT22;11258;52.516;13.318;2022-12-13T17:42:22;-0.90;99.90
22185;DHT22;11258;52.516;13.318;2022-12-13T17:44:48;-1.00;99.90
22185;DHT22;11258;52.516;13.318;2022-12-13T17:47:14;-1.00;99.90
22185;DHT22;11258;52.516;13.318;2022-12-13T17:49:39;-1.10;99.90
22185;DHT22;11258;52.516;13.318;2022-12-13T17:52:05;-1.10;99.90
22185;DHT22;11258;52.516;13.318;2022-12-13T17:54:31;-1.10;99.90
22185;DHT22;11258;52.516;13.318;2022-12-13T17:56:56;-1.10;99.90